sensor_id;sensor_type;location;lat;lon;timestamp;temperature;humidity
51383;DHT22;37475;43.358;1.248;2023-06-10T00:01:45;16.60;94.20
51383;DHT22;37475;43.358;1.248;2023-06-10T00:04:16;16.50;94.40
51383;DHT22;37475;43.358;1.248;2023-06-10T00:06:44;16.40;94.60
51383;DHT22;37475;43.358;1.248;2023-06-10T00:09:10;16.30;94.70
51383;DHT22;37475;43.358;1.248;2023-06-10T00:11:37;16.40;94.80
51383;DHT22;37475;43.358;1.248;2023-06-10T00:14:03;16.40;94.60
51383;DHT22;37475;43.358;1.248;2023-06-10T00:16:29;16.30;94.70
51383;DHT22;37475;43.358;1.248;2023-06-10T00:18:56;16.30;94.90
51383;DHT22;37475;43.358;1.248;2023-06-10T00:21:26;16.30;94.90
51383;DHT22;37475;43.358;1.248;2023-06-10T00:23:56;16.40;94.80
51383;DHT22;37475;43.358;1.248;2023-06-10T00:26:22;16.30;94.60
51383;DHT22;37475;43.358;1.248;2023-06-10T00:28:49;16.10;94.80
51383;DHT22;37475;43.358;1.248;2023-06-10T00:31:15;16.10;95.10
51383;DHT22;37475;43.358;1.248;2023-06-10T00:33:41;16.20;95.30
51383;DHT22;37475;43.358;1.248;2023-06-10T00:36:07;16.20;95.20
51383;DHT22;37475;43.358;1.248;2023-06-10T00:38:32;16.20;95.20
51383;DHT22;37475;43.358;1.248;2023-06-10T00:40:58;16.30;95.10
51383;DHT22;37475;43.358;1.248;2023-06-10T00:43:25;16.10;95.00
51383;DHT22;37475;43.358;1.248;2023-06-10T00:45:51;16.10;95.00
51383;DHT22;37475;43.358;1.248;2023-06-10T00:48:18;16.20;95.00
51383;DHT22;37475;43.358;1.248;2023-06-10T00:50:45;16.30;94.90
51383;DHT22;37475;43.358;1.248;2023-06-10T00:53:12;16.20;94.70
51383;DHT22;37475;43.358;1.248;2023-06-10T00:55:38;16.10;94.50
51383;DHT22;37475;43.358;1.248;2023-06-10T00:58:04;16.10;94.70
51383;DHT22;37475;43.358;1.248;2023-06-10T01:00:30;16.10;94.70
51383;DHT22;37475;43.358;1.248;2023-06-10T01:02:56;16.20;94.60
51383;DHT22;37475;43.358;1.248;2023-06-10T01:05:23;16.20;94.50
51383;DHT22;37475;43.358;1.248;2023-06-10T01:08:06;16.20;94.40
51383;DHT22;37475;43.358;1.248;2023-06-10T01:10:38;16.20;94.20
51383;DHT22;37475;43.358;1.248;2023-06-10T01:13:10;16.10;94.10
51383;DHT22;37475;43.358;1.248;2023-06-10T01:15:37;16.10;94.10
51383;DHT22;37475;43.358;1.248;2023-06-10T01:18:09;16.00;94.00
51383;DHT22;37475;43.358;1.248;2023-06-10T01:20:37;16.00;94.00
51383;DHT22;37475;43.358;1.248;2023-06-10T01:23:07;16.00;93.90
51383;DHT22;37475;43.358;1.248;2023-06-10T01:25:35;16.10;93.80
51383;DHT22;37475;43.358;1.248;2023-06-10T01:33:49;15.90;93.50
51383;DHT22;37475;43.358;1.248;2023-06-10T01:36:17;15.90;93.80
51383;DHT22;37475;43.358;1.248;2023-06-10T01:38:45;15.90;93.70
51383;DHT22;37475;43.358;1.248;2023-06-10T01:41:17;15.90;93.70
51383;DHT22;37475;43.358;1.248;2023-06-10T01:43:44;16.00;93.60
51383;DHT22;37475;43.358;1.248;2023-06-10T01:46:10;16.00;93.50
51383;DHT22;37475;43.358;1.248;2023-06-10T01:48:37;16.00;93.40
51383;DHT22;37475;43.358;1.248;2023-06-10T01:51:04;16.00;93.30
51383;DHT22;37475;43.358;1.248;2023-06-10T01:53:30;16.00;93.10
51383;DHT22;37475;43.358;1.248;2023-06-10T01:55:56;16.00;93.10
51383;DHT22;37475;43.358;1.248;2023-06-10T01:58:22;16.00;92.90
51383;DHT22;37475;43.358;1.248;2023-06-10T02:00:48;16.00;92.80
51383;DHT22;37475;43.358;1.248;2023-06-10T02:03:14;16.00;92.70
51383;DHT22;37475;43.358;1.248;2023-06-10T02:05:40;16.00;92.60
51383;DHT22;37475;43.358;1.248;2023-06-10T02:08:06;16.00;92.50
51383;DHT22;37475;43.358;1.248;2023-06-10T02:10:31;16.00;92.50
51383;DHT22;37475;43.358;1.248;2023-06-10T02:12:57;15.90;92.30
51383;DHT22;37475;43.358;1.248;2023-06-10T02:15:23;15.90;92.30
51383;DHT22;37475;43.358;1.248;2023-06-10T02:17:50;15.90;92.20
51383;DHT22;37475;43.358;1.248;2023-06-10T02:20:16;15.80;92.20
51383;DHT22;37475;43.358;1.248;2023-06-10T02:22:41;15.60;91.90
51383;DHT22;37475;43.358;1.248;2023-06-10T02:25:08;15.30;92.80
51383;DHT22;37475;43.358;1.248;2023-06-10T02:27:34;15.30;93.30
51383;DHT22;37475;43.358;1.248;2023-06-10T02:30:00;15.30;93.70
51383;DHT22;37475;43.358;1.248;2023-06-10T02:32:25;15.20;93.60
51383;DHT22;37475;43.358;1.248;2023-06-10T02:34:52;15.20;93.90
51383;DHT22;37475;43.358;1.248;2023-06-10T02:37:18;15.10;94.00
51383;DHT22;37475;43.358;1.248;2023-06-10T02:39:44;15.00;94.00
51383;DHT22;37475;43.358;1.248;2023-06-10T02:42:10;15.00;94.40
51383;DHT22;37475;43.358;1.248;2023-06-10T02:44:36;15.10;94.40
51383;DHT22;37475;43.358;1.248;2023-06-10T02:47:02;15.10;94.50
51383;DHT22;37475;43.358;1.248;2023-06-10T02:49:28;15.10;94.40
51383;DHT22;37475;43.358;1.248;2023-06-10T02:51:53;15.20;94.40
51383;DHT22;37475;43.358;1.248;2023-06-10T02:54:20;15.20;94.30
51383;DHT22;37475;43.358;1.248;2023-06-10T02:56:46;15.20;94.20
51383;DHT22;37475;43.358;1.248;2023-06-10T02:59:13;15.20;94.20
51383;DHT22;37475;43.358;1.248;2023-06-10T03:01:40;15.20;94.10
51383;DHT22;37475;43.358;1.248;2023-06-10T03:04:07;15.30;94.00
51383;DHT22;37475;43.358;1.248;2023-06-10T03:06:33;15.10;94.10
51383;DHT22;37475;43.358;1.248;2023-06-10T03:09:03;15.00;94.60
51383;DHT22;37475;43.358;1.248;2023-06-10T03:11:29;15.00;95.00
51383;DHT22;37475;43.358;1.248;2023-06-10T03:13:57;15.10;94.90
51383;DHT22;37475;43.358;1.248;2023-06-10T03:16:23;15.10;94.80
51383;DHT22;37475;43.358;1.248;2023-06-10T03:18:50;15.10;94.90
51383;DHT22;37475;43.358;1.248;2023-06-10T03:21:17;15.10;94.80
51383;DHT22;37475;43.358;1.248;2023-06-10T03:23:43;15.10;94.70
51383;DHT22;37475;43.358;1.248;2023-06-10T03:26:09;15.10;94.60
51383;DHT22;37475;43.358;1.248;2023-06-10T03:28:35;15.10;94.40
51383;DHT22;37475;43.358;1.248;2023-06-10T03:31:01;15.10;94.50
51383;DHT22;37475;43.358;1.248;2023-06-10T03:33:27;15.10;94.30
51383;DHT22;37475;43.358;1.248;2023-06-10T03:35:53;14.80;94.20
51383;DHT22;37475;43.358;1.248;2023-06-10T03:38:19;14.80;94.40
51383;DHT22;37475;43.358;1.248;2023-06-10T03:40:45;14.80;94.30
51383;DHT22;37475;43.358;1.248;2023-06-10T03:43:10;14.80;94.00
51383;DHT22;37475;43.358;1.248;2023-06-10T03:45:36;14.60;94.20
51383;DHT22;37475;43.358;1.248;2023-06-10T03:48:02;14.60;94.20
51383;DHT22;37475;43.358;1.248;2023-06-10T03:50:29;14.30;94.60
51383;DHT22;37475;43.358;1.248;2023-06-10T03:52:55;14.30;94.70
51383;DHT22;37475;43.358;1.248;2023-06-10T03:55:20;14.30;94.80
51383;DHT22;37475;43.358;1.248;2023-06-10T03:57:49;14.30;94.90
51383;DHT22;37475;43.358;1.248;2023-06-10T04:00:16;14.40;94.90
51383;DHT22;37475;43.358;1.248;2023-06-10T04:02:43;14.40;94.80
51383;DHT22;37475;43.358;1.248;2023-06-10T04:05:14;14.50;94.80
51383;DHT22;37475;43.358;1.248;2023-06-10T04:07:42;14.60;94.70
51383;DHT22;37475;43.358;1.248;2023-06-10T04:10:09;14.60;94.70
51383;DHT22;37475;43.358;1.248;2023-06-10T04:12:36;14.60;94.60
51383;DHT22;37475;43.358;1.248;2023-06-10T04:15:04;14.60;94.50
51383;DHT22;37475;43.358;1.248;2023-06-10T04:17:30;14.60;94.40
51383;DHT22;37475;43.358;1.248;2023-06-10T04:19:57;14.70;94.40
51383;DHT22;37475;43.358;1.248;2023-06-10T04:22:24;14.70;94.30
51383;DHT22;37475;43.358;1.248;2023-06-10T04:24:51;14.80;94.30
51383;DHT22;37475;43.358;1.248;2023-06-10T04:27:17;14.80;94.20
51383;DHT22;37475;43.358;1.248;2023-06-10T04:29:42;14.70;94.10
51383;DHT22;37475;43.358;1.248;2023-06-10T04:32:08;14.70;94.00
51383;DHT22;37475;43.358;1.248;2023-06-10T04:34:34;14.60;94.20
51383;DHT22;37475;43.358;1.248;2023-06-10T04:37:00;14.60;94.50
51383;DHT22;37475;43.358;1.248;2023-06-10T04:39:27;14.50;94.90
51383;DHT22;37475;43.358;1.248;2023-06-10T04:41:52;14.50;95.00
51383;DHT22;37475;43.358;1.248;2023-06-10T04:44:18;14.40;95.20
51383;DHT22;37475;43.358;1.248;2023-06-10T04:46:44;14.40;95.50
51383;DHT22;37475;43.358;1.248;2023-06-10T04:49:11;14.30;95.80
51383;DHT22;37475;43.358;1.248;2023-06-10T04:51:39;14.40;95.90
51383;DHT22;37475;43.358;1.248;2023-06-10T04:54:05;14.50;95.90
51383;DHT22;37475;43.358;1.248;2023-06-10T04:56:32;14.50;95.90
51383;DHT22;37475;43.358;1.248;2023-06-10T04:58:58;14.60;95.90
51383;DHT22;37475;43.358;1.248;2023-06-10T05:01:24;14.60;95.90
51383;DHT22;37475;43.358;1.248;2023-06-10T05:03:50;14.70;96.00
51383;DHT22;37475;43.358;1.248;2023-06-10T05:06:16;14.70;96.10
51383;DHT22;37475;43.358;1.248;2023-06-10T05:08:42;14.80;96.20
51383;DHT22;37475;43.358;1.248;2023-06-10T05:11:07;14.80;96.20
51383;DHT22;37475;43.358;1.248;2023-06-10T05:13:34;14.80;96.30
51383;DHT22;37475;43.358;1.248;2023-06-10T05:16:00;14.90;96.40
51383;DHT22;37475;43.358;1.248;2023-06-10T05:18:25;15.00;96.50
51383;DHT22;37475;43.358;1.248;2023-06-10T05:20:51;15.10;96.60
51383;DHT22;37475;43.358;1.248;2023-06-10T05:23:19;15.10;96.60
51383;DHT22;37475;43.358;1.248;2023-06-10T05:25:47;15.20;96.70
51383;DHT22;37475;43.358;1.248;2023-06-10T05:28:13;15.30;96.70
51383;DHT22;37475;43.358;1.248;2023-06-10T05:30:39;15.40;96.80
51383;DHT22;37475;43.358;1.248;2023-06-10T05:33:05;15.50;96.80
51383;DHT22;37475;43.358;1.248;2023-06-10T05:35:31;15.60;96.80
51383;DHT22;37475;43.358;1.248;2023-06-10T05:37:57;15.60;96.70
51383;DHT22;37475;43.358;1.248;2023-06-10T05:40:22;15.70;96.70
51383;DHT22;37475;43.358;1.248;2023-06-10T05:42:49;15.80;96.70
51383;DHT22;37475;43.358;1.248;2023-06-10T05:45:15;15.80;96.60
51383;DHT22;37475;43.358;1.248;2023-06-10T05:47:41;15.90;96.60
51383;DHT22;37475;43.358;1.248;2023-06-10T05:50:07;16.00;96.50
51383;DHT22;37475;43.358;1.248;2023-06-10T05:52:35;16.00;96.40
51383;DHT22;37475;43.358;1.248;2023-06-10T05:55:02;16.10;96.40
51383;DHT22;37475;43.358;1.248;2023-06-10T05:57:29;16.20;96.40
51383;DHT22;37475;43.358;1.248;2023-06-10T05:59:54;16.30;96.00
51383;DHT22;37475;43.358;1.248;2023-06-10T06:02:20;16.40;95.80
51383;DHT22;37475;43.358;1.248;2023-06-10T06:04:46;16.40;95.60
51383;DHT22;37475;43.358;1.248;2023-06-10T06:07:12;16.40;95.50
51383;DHT22;37475;43.358;1.248;2023-06-10T06:09:37;16.60;95.40
51383;DHT22;37475;43.358;1.248;2023-06-10T06:12:04;16.60;95.30
51383;DHT22;37475;43.358;1.248;2023-06-10T06:14:32;16.60;95.00
51383;DHT22;37475;43.358;1.248;2023-06-10T06:16:57;16.60;94.90
51383;DHT22;37475;43.358;1.248;2023-06-10T06:19:23;16.80;94.70
51383;DHT22;37475;43.358;1.248;2023-06-10T06:21:49;16.80;94.50
51383;DHT22;37475;43.358;1.248;2023-06-10T06:24:15;16.90;94.20
51383;DHT22;37475;43.358;1.248;2023-06-10T06:26:41;17.00;94.00
51383;DHT22;37475;43.358;1.248;2023-06-10T06:29:07;17.10;93.80
51383;DHT22;37475;43.358;1.248;2023-06-10T06:31:33;17.30;93.80
51383;DHT22;37475;43.358;1.248;2023-06-10T06:33:59;17.30;93.50
51383;DHT22;37475;43.358;1.248;2023-06-10T06:36:25;17.40;93.40
51383;DHT22;37475;43.358;1.248;2023-06-10T06:38:51;17.60;93.20
51383;DHT22;37475;43.358;1.248;2023-06-10T06:41:17;17.60;93.40
51383;DHT22;37475;43.358;1.248;2023-06-10T06:43:43;17.70;93.30
51383;DHT22;37475;43.358;1.248;2023-06-10T06:46:10;17.90;93.10
51383;DHT22;37475;43.358;1.248;2023-06-10T06:48:36;17.90;92.90
51383;DHT22;37475;43.358;1.248;2023-06-10T06:51:02;18.10;93.10
51383;DHT22;37475;43.358;1.248;2023-06-10T06:53:28;18.10;93.00
51383;DHT22;37475;43.358;1.248;2023-06-10T06:55:54;18.10;92.20
51383;DHT22;37475;43.358;1.248;2023-06-10T06:58:21;18.20;92.20
51383;DHT22;37475;43.358;1.248;2023-06-10T07:00:47;18.10;92.50
51383;DHT22;37475;43.358;1.248;2023-06-10T07:03:13;18.30;92.50
51383;DHT22;37475;43.358;1.248;2023-06-10T07:05:39;18.30;92.40
51383;DHT22;37475;43.358;1.248;2023-06-10T07:08:05;18.40;92.20
51383;DHT22;37475;43.358;1.248;2023-06-10T07:10:31;18.50;92.10
51383;DHT22;37475;43.358;1.248;2023-06-10T07:12:57;18.60;92.00
51383;DHT22;37475;43.358;1.248;2023-06-10T07:15:22;18.70;91.80
51383;DHT22;37475;43.358;1.248;2023-06-10T07:17:48;18.80;91.60
51383;DHT22;37475;43.358;1.248;2023-06-10T07:20:14;18.90;91.30
51383;DHT22;37475;43.358;1.248;2023-06-10T07:22:41;19.00;90.80
51383;DHT22;37475;43.358;1.248;2023-06-10T07:25:07;19.10;90.80
51383;DHT22;37475;43.358;1.248;2023-06-10T07:27:33;19.10;89.30
51383;DHT22;37475;43.358;1.248;2023-06-10T07:30:01;19.20;89.60
51383;DHT22;37475;43.358;1.248;2023-06-10T07:32:27;19.50;90.00
51383;DHT22;37475;43.358;1.248;2023-06-10T07:34:53;19.50;88.80
51383;DHT22;37475;43.358;1.248;2023-06-10T07:37:19;19.60;89.00
51383;DHT22;37475;43.358;1.248;2023-06-10T07:39:45;19.70;88.20
51383;DHT22;37475;43.358;1.248;2023-06-10T07:42:11;19.90;88.20
51383;DHT22;37475;43.358;1.248;2023-06-10T07:44:37;20.00;87.80
51383;DHT22;37475;43.358;1.248;2023-06-10T07:47:03;20.00;84.20
51383;DHT22;37475;43.358;1.248;2023-06-10T07:49:29;20.10;84.90
51383;DHT22;37475;43.358;1.248;2023-06-10T07:51:55;20.20;84.40
51383;DHT22;37475;43.358;1.248;2023-06-10T07:54:21;20.30;84.10
51383;DHT22;37475;43.358;1.248;2023-06-10T07:56:47;20.30;83.30
51383;DHT22;37475;43.358;1.248;2023-06-10T07:59:16;20.50;83.40
51383;DHT22;37475;43.358;1.248;2023-06-10T08:01:42;20.60;83.10
51383;DHT22;37475;43.358;1.248;2023-06-10T08:04:08;20.70;82.70
51383;DHT22;37475;43.358;1.248;2023-06-10T08:06:34;20.90;83.90
51383;DHT22;37475;43.358;1.248;2023-06-10T08:09:00;21.00;82.50
51383;DHT22;37475;43.358;1.248;2023-06-10T08:11:25;21.10;82.00
51383;DHT22;37475;43.358;1.248;2023-06-10T08:13:54;21.10;81.30
51383;DHT22;37475;43.358;1.248;2023-06-10T08:16:20;21.20;80.00
51383;DHT22;37475;43.358;1.248;2023-06-10T08:18:45;21.20;79.60
51383;DHT22;37475;43.358;1.248;2023-06-10T08:21:11;21.40;80.20
51383;DHT22;37475;43.358;1.248;2023-06-10T08:23:37;21.40;78.60
51383;DHT22;37475;43.358;1.248;2023-06-10T08:26:03;21.50;77.90
51383;DHT22;37475;43.358;1.248;2023-06-10T08:28:29;21.70;78.40
51383;DHT22;37475;43.358;1.248;2023-06-10T08:30:54;21.80;77.30
51383;DHT22;37475;43.358;1.248;2023-06-10T08:33:20;21.90;76.30
51383;DHT22;37475;43.358;1.248;2023-06-10T08:35:46;22.10;77.20
51383;DHT22;37475;43.358;1.248;2023-06-10T08:38:12;22.20;76.60
51383;DHT22;37475;43.358;1.248;2023-06-10T08:40:37;22.40;77.20
51383;DHT22;37475;43.358;1.248;2023-06-10T08:43:08;22.50;77.90
51383;DHT22;37475;43.358;1.248;2023-06-10T08:45:36;22.60;76.50
51383;DHT22;37475;43.358;1.248;2023-06-10T08:48:03;22.60;76.20
51383;DHT22;37475;43.358;1.248;2023-06-10T08:50:34;22.70;76.40
51383;DHT22;37475;43.358;1.248;2023-06-10T08:53:04;22.90;77.40
51383;DHT22;37475;43.358;1.248;2023-06-10T08:55:38;22.70;75.20
51383;DHT22;37475;43.358;1.248;2023-06-10T08:58:04;22.70;76.10
51383;DHT22;37475;43.358;1.248;2023-06-10T09:00:31;22.90;71.90
51383;DHT22;37475;43.358;1.248;2023-06-10T09:02:57;23.10;72.20
51383;DHT22;37475;43.358;1.248;2023-06-10T09:05:24;23.50;71.80
51383;DHT22;37475;43.358;1.248;2023-06-10T09:07:52;23.50;70.10
51383;DHT22;37475;43.358;1.248;2023-06-10T09:10:19;23.70;68.60
51383;DHT22;37475;43.358;1.248;2023-06-10T09:12:45;23.70;71.40
51383;DHT22;37475;43.358;1.248;2023-06-10T09:15:11;24.00;72.00
51383;DHT22;37475;43.358;1.248;2023-06-10T09:17:38;24.10;70.60
51383;DHT22;37475;43.358;1.248;2023-06-10T09:20:07;24.20;72.20
51383;DHT22;37475;43.358;1.248;2023-06-10T09:22:33;24.20;69.60
51383;DHT22;37475;43.358;1.248;2023-06-10T09:25:17;24.10;70.50
51383;DHT22;37475;43.358;1.248;2023-06-10T09:27:52;24.00;70.70
51383;DHT22;37475;43.358;1.248;2023-06-10T09:32:53;24.40;68.40
51383;DHT22;37475;43.358;1.248;2023-06-10T09:35:24;24.60;69.20
51383;DHT22;37475;43.358;1.248;2023-06-10T09:37:59;24.80;68.20
51383;DHT22;37475;43.358;1.248;2023-06-10T09:40:25;24.90;67.80
51383;DHT22;37475;43.358;1.248;2023-06-10T09:42:59;24.70;67.40
51383;DHT22;37475;43.358;1.248;2023-06-10T09:45:32;24.80;67.60
51383;DHT22;37475;43.358;1.248;2023-06-10T09:47:58;24.80;70.20
51383;DHT22;37475;43.358;1.248;2023-06-10T09:50:23;24.90;64.30
51383;DHT22;37475;43.358;1.248;2023-06-10T09:52:50;25.00;67.30
51383;DHT22;37475;43.358;1.248;2023-06-10T09:55:17;25.20;67.00
51383;DHT22;37475;43.358;1.248;2023-06-10T09:57:44;25.40;66.00
51383;DHT22;37475;43.358;1.248;2023-06-10T10:00:14;25.50;68.00
51383;DHT22;37475;43.358;1.248;2023-06-10T10:02:49;25.50;65.20
51383;DHT22;37475;43.358;1.248;2023-06-10T10:05:18;25.70;63.30
51383;DHT22;37475;43.358;1.248;2023-06-10T10:07:45;25.60;65.00
51383;DHT22;37475;43.358;1.248;2023-06-10T10:10:12;25.80;67.30
51383;DHT22;37475;43.358;1.248;2023-06-10T10:12:41;25.90;63.70
51383;DHT22;37475;43.358;1.248;2023-06-10T10:15:09;25.80;65.90
51383;DHT22;37475;43.358;1.248;2023-06-10T10:18:09;25.80;64.70
51383;DHT22;37475;43.358;1.248;2023-06-10T10:21:01;25.80;65.70
51383;DHT22;37475;43.358;1.248;2023-06-10T10:24:20;26.10;63.60
51383;DHT22;37475;43.358;1.248;2023-06-10T10:26:31;25.90;60.30
51383;DHT22;37475;43.358;1.248;2023-06-10T10:29:23;26.30;62.20
51383;DHT22;37475;43.358;1.248;2023-06-10T10:32:01;26.50;61.60
51383;DHT22;37475;43.358;1.248;2023-06-10T10:34:53;26.50;63.40
51383;DHT22;37475;43.358;1.248;2023-06-10T10:37:28;26.70;58.60
51383;DHT22;37475;43.358;1.248;2023-06-10T10:39:54;27.10;61.00
51383;DHT22;37475;43.358;1.248;2023-06-10T10:42:20;26.60;60.10
51383;DHT22;37475;43.358;1.248;2023-06-10T10:44:47;26.60;57.70
51383;DHT22;37475;43.358;1.248;2023-06-10T10:47:16;26.50;55.60
51383;DHT22;37475;43.358;1.248;2023-06-10T10:49:50;26.30;55.70
51383;DHT22;37475;43.358;1.248;2023-06-10T10:52:24;26.50;55.80
51383;DHT22;37475;43.358;1.248;2023-06-10T10:54:53;26.70;57.30
51383;DHT22;37475;43.358;1.248;2023-06-10T10:57:23;26.70;54.20
51383;DHT22;37475;43.358;1.248;2023-06-10T10:59:54;26.40;56.00
51383;DHT22;37475;43.358;1.248;2023-06-10T11:05:06;26.50;54.00
51383;DHT22;37475;43.358;1.248;2023-06-10T11:07:34;27.00;55.00
51383;DHT22;37475;43.358;1.248;2023-06-10T11:10:07;27.10;54.00
51383;DHT22;37475;43.358;1.248;2023-06-10T11:12:52;27.50;56.00
51383;DHT22;37475;43.358;1.248;2023-06-10T11:15:20;27.90;57.30
51383;DHT22;37475;43.358;1.248;2023-06-10T11:18:10;28.00;58.40
51383;DHT22;37475;43.358;1.248;2023-06-10T11:25:51;29.00;49.40
51383;DHT22;37475;43.358;1.248;2023-06-10T11:28:20;29.00;49.90
51383;DHT22;37475;43.358;1.248;2023-06-10T11:30:46;29.00;51.40
51383;DHT22;37475;43.358;1.248;2023-06-10T11:33:23;29.10;52.50
51383;DHT22;37475;43.358;1.248;2023-06-10T11:35:50;29.40;51.00
51383;DHT22;37475;43.358;1.248;2023-06-10T11:38:15;29.50;50.80
51383;DHT22;37475;43.358;1.248;2023-06-10T11:40:49;28.70;50.00
51383;DHT22;37475;43.358;1.248;2023-06-10T11:43:17;28.70;49.90
51383;DHT22;37475;43.358;1.248;2023-06-10T11:45:43;28.90;50.30
51383;DHT22;37475;43.358;1.248;2023-06-10T11:48:10;27.80;52.30
51383;DHT22;37475;43.358;1.248;2023-06-10T11:50:36;27.70;53.10
51383;DHT22;37475;43.358;1.248;2023-06-10T11:53:03;27.80;50.80
51383;DHT22;37475;43.358;1.248;2023-06-10T11:55:49;28.20;53.40
51383;DHT22;37475;43.358;1.248;2023-06-10T11:58:17;28.90;51.40
51383;DHT22;37475;43.358;1.248;2023-06-10T12:00:52;29.20;51.40
51383;DHT22;37475;43.358;1.248;2023-06-10T12:03:20;29.50;49.80
51383;DHT22;37475;43.358;1.248;2023-06-10T12:06:03;29.40;51.70
51383;DHT22;37475;43.358;1.248;2023-06-10T12:08:30;29.40;50.30
51383;DHT22;37475;43.358;1.248;2023-06-10T12:10:57;29.10;52.50
51383;DHT22;37475;43.358;1.248;2023-06-10T12:13:27;29.60;49.70
51383;DHT22;37475;43.358;1.248;2023-06-10T12:15:53;29.80;48.90
51383;DHT22;37475;43.358;1.248;2023-06-10T12:18:22;29.90;50.10
51383;DHT22;37475;43.358;1.248;2023-06-10T12:20:49;30.20;48.50
51383;DHT22;37475;43.358;1.248;2023-06-10T12:23:17;30.20;49.10
51383;DHT22;37475;43.358;1.248;2023-06-10T12:25:54;30.50;47.90
51383;DHT22;37475;43.358;1.248;2023-06-10T12:28:25;30.80;46.80
51383;DHT22;37475;43.358;1.248;2023-06-10T12:30:52;30.00;49.20
51383;DHT22;37475;43.358;1.248;2023-06-10T12:33:32;29.40;49.40
51383;DHT22;37475;43.358;1.248;2023-06-10T12:35:57;29.50;50.20
51383;DHT22;37475;43.358;1.248;2023-06-10T12:38:26;30.00;47.20
51383;DHT22;37475;43.358;1.248;2023-06-10T12:40:53;30.00;48.10
51383;DHT22;37475;43.358;1.248;2023-06-10T12:43:23;30.20;46.90
51383;DHT22;37475;43.358;1.248;2023-06-10T12:45:49;30.30;46.90
51383;DHT22;37475;43.358;1.248;2023-06-10T12:48:22;30.10;46.00
51383;DHT22;37475;43.358;1.248;2023-06-10T12:50:56;30.50;43.80
51383;DHT22;37475;43.358;1.248;2023-06-10T12:53:24;30.50;47.80
51383;DHT22;37475;43.358;1.248;2023-06-10T12:55:52;31.00;47.10
51383;DHT22;37475;43.358;1.248;2023-06-10T12:58:22;31.40;43.90
51383;DHT22;37475;43.358;1.248;2023-06-10T13:00:48;31.50;44.90
51383;DHT22;37475;43.358;1.248;2023-06-10T13:03:14;31.70;43.50
51383;DHT22;37475;43.358;1.248;2023-06-10T13:05:40;32.00;44.80
51383;DHT22;37475;43.358;1.248;2023-06-10T13:08:08;31.30;42.80
51383;DHT22;37475;43.358;1.248;2023-06-10T13:10:36;31.20;44.90
51383;DHT22;37475;43.358;1.248;2023-06-10T13:13:03;31.50;44.40
51383;DHT22;37475;43.358;1.248;2023-06-10T13:15:32;31.40;45.80
51383;DHT22;37475;43.358;1.248;2023-06-10T13:18:02;31.30;45.20
51383;DHT22;37475;43.358;1.248;2023-06-10T13:20:29;31.30;47.90
51383;DHT22;37475;43.358;1.248;2023-06-10T13:22:55;31.50;45.80
51383;DHT22;37475;43.358;1.248;2023-06-10T13:25:21;31.40;45.80
51383;DHT22;37475;43.358;1.248;2023-06-10T13:27:46;31.40;43.20
51383;DHT22;37475;43.358;1.248;2023-06-10T13:30:12;31.60;42.00
51383;DHT22;37475;43.358;1.248;2023-06-10T13:32:38;31.00;42.00
51383;DHT22;37475;43.358;1.248;2023-06-10T13:35:04;31.50;42.10
51383;DHT22;37475;43.358;1.248;2023-06-10T13:37:30;31.70;43.60
51383;DHT22;37475;43.358;1.248;2023-06-10T13:39:56;32.10;41.20
51383;DHT22;37475;43.358;1.248;2023-06-10T13:42:22;32.50;41.30
51383;DHT22;37475;43.358;1.248;2023-06-10T13:44:48;32.50;40.50
51383;DHT22;37475;43.358;1.248;2023-06-10T13:47:14;32.70;41.20
51383;DHT22;37475;43.358;1.248;2023-06-10T13:49:40;30.80;43.40
51383;DHT22;37475;43.358;1.248;2023-06-10T13:52:07;30.80;47.30
51383;DHT22;37475;43.358;1.248;2023-06-10T13:54:33;30.40;44.40
51383;DHT22;37475;43.358;1.248;2023-06-10T13:57:01;30.50;47.10
51383;DHT22;37475;43.358;1.248;2023-06-10T13:59:27;31.10;43.70
51383;DHT22;37475;43.358;1.248;2023-06-10T14:01:53;30.90;44.20
51383;DHT22;37475;43.358;1.248;2023-06-10T14:04:19;31.10;43.90
51383;DHT22;37475;43.358;1.248;2023-06-10T14:06:45;30.50;42.50
51383;DHT22;37475;43.358;1.248;2023-06-10T14:09:12;31.20;45.20
51383;DHT22;37475;43.358;1.248;2023-06-10T14:11:38;32.00;44.10
51383;DHT22;37475;43.358;1.248;2023-06-10T14:14:04;31.90;38.00
51383;DHT22;37475;43.358;1.248;2023-06-10T14:16:30;32.00;39.80
51383;DHT22;37475;43.358;1.248;2023-06-10T14:18:56;31.40;41.50
51383;DHT22;37475;43.358;1.248;2023-06-10T14:21:22;31.30;42.40
51383;DHT22;37475;43.358;1.248;2023-06-10T14:23:48;31.70;40.10
51383;DHT22;37475;43.358;1.248;2023-06-10T14:26:14;30.60;43.10
51383;DHT22;37475;43.358;1.248;2023-06-10T14:28:40;30.30;42.40
51383;DHT22;37475;43.358;1.248;2023-06-10T14:31:07;30.40;45.30
51383;DHT22;37475;43.358;1.248;2023-06-10T14:33:33;30.00;42.50
51383;DHT22;37475;43.358;1.248;2023-06-10T14:35:59;30.70;45.10
51383;DHT22;37475;43.358;1.248;2023-06-10T14:38:25;30.80;45.00
51383;DHT22;37475;43.358;1.248;2023-06-10T14:40:51;31.50;44.40
51383;DHT22;37475;43.358;1.248;2023-06-10T14:43:17;31.50;43.00
51383;DHT22;37475;43.358;1.248;2023-06-10T14:45:44;31.50;44.90
51383;DHT22;37475;43.358;1.248;2023-06-10T14:48:10;31.60;44.60
51383;DHT22;37475;43.358;1.248;2023-06-10T14:50:38;31.20;44.00
51383;DHT22;37475;43.358;1.248;2023-06-10T14:53:05;30.60;47.00
51383;DHT22;37475;43.358;1.248;2023-06-10T14:55:31;30.50;47.60
51383;DHT22;37475;43.358;1.248;2023-06-10T14:57:57;30.70;45.80
51383;DHT22;37475;43.358;1.248;2023-06-10T15:00:23;31.00;45.10
51383;DHT22;37475;43.358;1.248;2023-06-10T15:02:50;31.50;42.50
51383;DHT22;37475;43.358;1.248;2023-06-10T15:05:17;32.00;42.70
51383;DHT22;37475;43.358;1.248;2023-06-10T15:07:45;32.50;42.10
51383;DHT22;37475;43.358;1.248;2023-06-10T15:10:11;32.90;40.00
51383;DHT22;37475;43.358;1.248;2023-06-10T15:12:37;33.10;41.70
51383;DHT22;37475;43.358;1.248;2023-06-10T15:15:03;33.60;40.20
51383;DHT22;37475;43.358;1.248;2023-06-10T15:17:29;34.00;40.40
51383;DHT22;37475;43.358;1.248;2023-06-10T15:19:55;34.00;39.10
51383;DHT22;37475;43.358;1.248;2023-06-10T15:22:21;32.70;40.70
51383;DHT22;37475;43.358;1.248;2023-06-10T15:24:47;33.00;40.50
51383;DHT22;37475;43.358;1.248;2023-06-10T15:27:13;31.50;42.80
51383;DHT22;37475;43.358;1.248;2023-06-10T15:29:39;31.70;42.60
51383;DHT22;37475;43.358;1.248;2023-06-10T15:32:05;32.20;39.80
51383;DHT22;37475;43.358;1.248;2023-06-10T15:34:31;32.60;40.70
51383;DHT22;37475;43.358;1.248;2023-06-10T15:36:57;33.00;41.20
51383;DHT22;37475;43.358;1.248;2023-06-10T15:39:23;33.00;39.60
51383;DHT22;37475;43.358;1.248;2023-06-10T15:41:50;32.80;40.20
51383;DHT22;37475;43.358;1.248;2023-06-10T15:44:16;32.90;41.30
51383;DHT22;37475;43.358;1.248;2023-06-10T15:46:42;32.60;42.90
51383;DHT22;37475;43.358;1.248;2023-06-10T15:49:08;32.50;40.30